sensor_id;sensor_type;location;lat;lon;timestamp;pressure;altitude;pressure_sealevel;temperature;humidity
72921;BME280;61064;51.654;5.476;2023-02-15T00:01:08;102995.78;;;3.37;78.77
72921;BME280;61064;51.654;5.476;2023-02-15T00:03:34;102991.00;;;3.31;78.50
72921;BME280;61064;51.654;5.476;2023-02-15T00:06:00;102968.50;;;3.23;78.75
72921;BME280;61064;51.654;5.476;2023-02-15T00:08:26;102953.50;;;3.09;78.76
72921;BME280;61064;51.654;5.476;2023-02-15T00:10:51;102990.69;;;3.27;79.02
72921;BME280;61064;51.654;5.476;2023-02-15T00:13:16;102986.91;;;3.23;78.96
72921;BME280;61064;51.654;5.476;2023-02-15T00:15:42;102992.53;;;3.28;78.99
72921;BME280;61064;51.654;5.476;2023-02-15T00:18:07;102928.53;;;2.91;78.79
72921;BME280;61064;51.654;5.476;2023-02-15T00:20:32;102972.94;;;3.11;78.99
72921;BME280;61064;51.654;5.476;2023-02-15T00:22:58;102984.69;;;3.16;78.76
72921;BME280;61064;51.654;5.476;2023-02-15T00:25:24;102971.59;;;3.05;79.16
72921;BME280;61064;51.654;5.476;2023-02-15T00:27:49;102969.31;;;2.98;79.14
72921;BME280;61064;51.654;5.476;2023-02-15T00:30:15;102966.56;;;2.96;79.09
72921;BME280;61064;51.654;5.476;2023-02-15T00:32:40;102963.13;;;2.97;79.21
72921;BME280;61064;51.654;5.476;2023-02-15T00:35:06;102965.09;;;3.00;79.32
72921;BME280;61064;51.654;5.476;2023-02-15T00:37:32;102943.63;;;2.93;79.20
72921;BME280;61064;51.654;5.476;2023-02-15T00:39:57;102959.03;;;3.01;79.30
72921;BME280;61064;51.654;5.476;2023-02-15T00:42:23;102962.66;;;3.03;79.71
72921;BME280;61064;51.654;5.476;2023-02-15T00:44:48;102956.28;;;2.99;79.28
72921;BME280;61064;51.654;5.476;2023-02-15T00:47:13;102947.47;;;2.99;79.73
72921;BME280;61064;51.654;5.476;2023-02-15T00:49:39;102944.28;;;2.91;79.35
72921;BME280;61064;51.654;5.476;2023-02-15T00:52:04;102934.97;;;2.83;79.54
72921;BME280;61064;51.654;5.476;2023-02-15T00:54:30;102938.28;;;2.80;79.16
72921;BME280;61064;51.654;5.476;2023-02-15T00:56:55;102933.81;;;2.79;79.64
72921;BME280;61064;51.654;5.476;2023-02-15T00:59:20;102920.59;;;2.78;79.70
72921;BME280;61064;51.654;5.476;2023-02-15T01:01:46;102947.53;;;2.87;79.64
72921;BME280;61064;51.654;5.476;2023-02-15T01:04:11;102929.59;;;2.81;79.52
72921;BME280;61064;51.654;5.476;2023-02-15T01:06:36;102907.69;;;2.69;79.66
72921;BME280;61064;51.654;5.476;2023-02-15T01:09:02;102943.53;;;2.80;79.39
72921;BME280;61064;51.654;5.476;2023-02-15T01:11:27;102924.69;;;2.74;79.58
72921;BME280;61064;51.654;5.476;2023-02-15T01:13:57;102919.00;;;2.68;79.59
72921;BME280;61064;51.654;5.476;2023-02-15T01:16:25;102899.84;;;2.58;79.78
72921;BME280;61064;51.654;5.476;2023-02-15T01:18:50;102930.56;;;2.70;79.73
72921;BME280;61064;51.654;5.476;2023-02-15T01:21:19;102920.41;;;2.63;79.75
72921;BME280;61064;51.654;5.476;2023-02-15T01:23:45;102912.91;;;2.56;79.83
72921;BME280;61064;51.654;5.476;2023-02-15T01:26:11;102933.66;;;2.65;79.68
72921;BME280;61064;51.654;5.476;2023-02-15T01:28:36;102930.59;;;2.59;79.98
72921;BME280;61064;51.654;5.476;2023-02-15T01:31:11;102915.28;;;2.53;79.74
72921;BME280;61064;51.654;5.476;2023-02-15T01:33:38;102921.66;;;2.57;80.13
72921;BME280;61064;51.654;5.476;2023-02-15T01:36:04;102927.75;;;2.56;79.92
72921;BME280;61064;51.654;5.476;2023-02-15T01:38:30;102922.38;;;2.54;79.91
72921;BME280;61064;51.654;5.476;2023-02-15T01:40:55;102891.34;;;2.37;80.23
72921;BME280;61064;51.654;5.476;2023-02-15T01:43:41;102917.81;;;2.51;80.03
72921;BME280;61064;51.654;5.476;2023-02-15T01:46:07;102916.09;;;2.52;80.03
72921;BME280;61064;51.654;5.476;2023-02-15T01:48:33;102905.84;;;2.43;79.92
72921;BME280;61064;51.654;5.476;2023-02-15T01:51:00;102911.91;;;2.42;80.16
72921;BME280;61064;51.654;5.476;2023-02-15T01:53:30;102903.56;;;2.36;79.85
72921;BME280;61064;51.654;5.476;2023-02-15T01:56:01;102915.44;;;2.43;80.09
72921;BME280;61064;51.654;5.476;2023-02-15T01:58:28;102906.91;;;2.34;79.90
72921;BME280;61064;51.654;5.476;2023-02-15T02:00:57;102890.47;;;2.25;80.09
72921;BME280;61064;51.654;5.476;2023-02-15T02:03:57;102911.44;;;2.36;80.30
72921;BME280;61064;51.654;5.476;2023-02-15T02:06:25;102897.88;;;2.30;80.09
72921;BME280;61064;51.654;5.476;2023-02-15T02:08:53;102884.41;;;2.26;80.02
72921;BME280;61064;51.654;5.476;2023-02-15T02:11:18;102879.63;;;2.20;80.18
72921;BME280;61064;51.654;5.476;2023-02-15T02:13:44;102879.50;;;2.19;79.91
72921;BME280;61064;51.654;5.476;2023-02-15T02:17:05;102901.22;;;2.28;80.36
72921;BME280;61064;51.654;5.476;2023-02-15T02:42:35;102868.81;;;2.04;80.58
72921;BME280;61064;51.654;5.476;2023-02-15T02:45:06;102867.00;;;2.03;80.26
72921;BME280;61064;51.654;5.476;2023-02-15T02:47:38;102862.31;;;1.99;80.57
72921;BME280;61064;51.654;5.476;2023-02-15T02:50:13;102866.53;;;2.08;80.47
72921;BME280;61064;51.654;5.476;2023-02-15T02:52:47;102867.22;;;2.06;80.62
72921;BME280;61064;51.654;5.476;2023-02-15T02:55:36;102855.25;;;1.98;80.58
72921;BME280;61064;51.654;5.476;2023-02-15T02:58:23;102863.31;;;2.01;80.70
72921;BME280;61064;51.654;5.476;2023-02-15T03:01:06;102858.19;;;2.02;80.78
72921;BME280;61064;51.654;5.476;2023-02-15T03:06:06;102858.53;;;2.07;81.09
72921;BME280;61064;51.654;5.476;2023-02-15T03:08:40;102849.06;;;2.09;80.93
72921;BME280;61064;51.654;5.476;2023-02-15T03:11:07;102857.84;;;2.09;81.02
72921;BME280;61064;51.654;5.476;2023-02-15T03:13:34;102817.25;;;1.93;80.87
72921;BME280;61064;51.654;5.476;2023-02-15T03:16:00;102820.47;;;1.89;81.20
72921;BME280;61064;51.654;5.476;2023-02-15T03:18:48;102833.44;;;1.99;81.28
72921;BME280;61064;51.654;5.476;2023-02-15T03:21:47;102842.56;;;2.04;81.11
72921;BME280;61064;51.654;5.476;2023-02-15T03:24:17;102812.59;;;1.89;81.24
72921;BME280;61064;51.654;5.476;2023-02-15T03:26:48;102839.81;;;2.02;81.50
72921;BME280;61064;51.654;5.476;2023-02-15T03:29:15;102832.88;;;2.03;81.57
72921;BME280;61064;51.654;5.476;2023-02-15T03:31:45;102838.91;;;2.02;81.36
72921;BME280;61064;51.654;5.476;2023-02-15T03:34:13;102812.34;;;1.97;81.46
72921;BME280;61064;51.654;5.476;2023-02-15T03:39:34;102814.28;;;2.00;81.65
72921;BME280;61064;51.654;5.476;2023-02-15T03:44:41;102820.53;;;2.02;81.84
72921;BME280;61064;51.654;5.476;2023-02-15T03:47:15;102803.34;;;1.94;81.78
72921;BME280;61064;51.654;5.476;2023-02-15T03:49:47;102803.88;;;1.90;81.84
72921;BME280;61064;51.654;5.476;2023-02-15T03:52:15;102822.63;;;1.94;81.75
72921;BME280;61064;51.654;5.476;2023-02-15T03:54:42;102814.63;;;1.93;82.00
72921;BME280;61064;51.654;5.476;2023-02-15T03:59:59;102790.34;;;1.84;82.02
72921;BME280;61064;51.654;5.476;2023-02-15T04:05:35;102793.97;;;1.86;81.95
72921;BME280;61064;51.654;5.476;2023-02-15T04:08:01;102811.09;;;1.92;82.42
72921;BME280;61064;51.654;5.476;2023-02-15T04:10:27;102804.59;;;1.87;82.11
72921;BME280;61064;51.654;5.476;2023-02-15T04:13:11;102807.44;;;1.90;82.39
72921;BME280;61064;51.654;5.476;2023-02-15T04:15:36;102796.47;;;1.84;82.55
72921;BME280;61064;51.654;5.476;2023-02-15T04:18:20;102806.50;;;1.90;82.07
72921;BME280;61064;51.654;5.476;2023-02-15T04:20:46;102793.44;;;1.78;82.50
72921;BME280;61064;51.654;5.476;2023-02-15T04:23:31;102808.00;;;1.86;82.35
72921;BME280;61064;51.654;5.476;2023-02-15T04:26:16;102800.63;;;1.81;82.46
72921;BME280;61064;51.654;5.476;2023-02-15T04:28:41;102799.69;;;1.80;82.28
72921;BME280;61064;51.654;5.476;2023-02-15T04:31:06;102814.97;;;1.86;82.44
72921;BME280;61064;51.654;5.476;2023-02-15T04:33:32;102805.84;;;1.81;82.43
72921;BME280;61064;51.654;5.476;2023-02-15T04:35:57;102793.78;;;1.71;82.20
72921;BME280;61064;51.654;5.476;2023-02-15T04:38:22;102787.19;;;1.64;82.29
72921;BME280;61064;51.654;5.476;2023-02-15T04:40:52;102811.69;;;1.77;82.77
72921;BME280;61064;51.654;5.476;2023-02-15T04:43:20;102803.38;;;1.71;82.71
72921;BME280;61064;51.654;5.476;2023-02-15T04:45:50;102797.88;;;1.67;82.63
72921;BME280;61064;51.654;5.476;2023-02-15T04:48:16;102774.19;;;1.54;82.57
72921;BME280;61064;51.654;5.476;2023-02-15T04:50:42;102798.78;;;1.68;82.72
72921;BME280;61064;51.654;5.476;2023-02-15T04:53:07;102785.13;;;1.60;82.75
72921;BME280;61064;51.654;5.476;2023-02-15T04:55:33;102788.75;;;1.62;82.56
72921;BME280;61064;51.654;5.476;2023-02-15T04:57:58;102781.72;;;1.61;82.80
72921;BME280;61064;51.654;5.476;2023-02-15T05:00:23;102769.16;;;1.57;82.68
72921;BME280;61064;51.654;5.476;2023-02-15T05:02:49;102774.97;;;1.53;83.08
72921;BME280;61064;51.654;5.476;2023-02-15T05:05:14;102770.53;;;1.52;82.95
72921;BME280;61064;51.654;5.476;2023-02-15T05:07:40;102773.28;;;1.54;82.93
72921;BME280;61064;51.654;5.476;2023-02-15T05:10:06;102777.16;;;1.59;82.96
72921;BME280;61064;51.654;5.476;2023-02-15T05:12:31;102755.25;;;1.47;83.17
72921;BME280;61064;51.654;5.476;2023-02-15T05:14:57;102729.41;;;1.28;83.14
72921;BME280;61064;51.654;5.476;2023-02-15T05:17:22;102700.22;;;1.12;83.21
72921;BME280;61064;51.654;5.476;2023-02-15T05:19:48;102781.72;;;1.50;83.28
72921;BME280;61064;51.654;5.476;2023-02-15T05:22:16;102713.78;;;1.18;83.11
72921;BME280;61064;51.654;5.476;2023-02-15T05:24:42;102764.03;;;1.47;83.23
72921;BME280;61064;51.654;5.476;2023-02-15T05:27:26;102770.41;;;1.51;83.31
72921;BME280;61064;51.654;5.476;2023-02-15T05:30:10;102741.16;;;1.33;83.02
72921;BME280;61064;51.654;5.476;2023-02-15T05:32:37;102766.53;;;1.46;83.48
72921;BME280;61064;51.654;5.476;2023-02-15T05:35:04;102788.31;;;1.56;83.12
72921;BME280;61064;51.654;5.476;2023-02-15T05:37:33;102772.38;;;1.53;83.22
72921;BME280;61064;51.654;5.476;2023-02-15T05:39:58;102758.34;;;1.41;83.17
72921;BME280;61064;51.654;5.476;2023-02-15T05:42:24;102783.06;;;1.56;83.43
72921;BME280;61064;51.654;5.476;2023-02-15T05:44:49;102755.97;;;1.44;83.24
72921;BME280;61064;51.654;5.476;2023-02-15T05:47:14;102781.34;;;1.57;83.35
72921;BME280;61064;51.654;5.476;2023-02-15T05:49:40;102786.50;;;1.55;83.36
72921;BME280;61064;51.654;5.476;2023-02-15T05:52:05;102768.50;;;1.48;83.30
72921;BME280;61064;51.654;5.476;2023-02-15T05:54:31;102769.16;;;1.46;83.24
72921;BME280;61064;51.654;5.476;2023-02-15T05:56:56;102788.88;;;1.52;83.26
72921;BME280;61064;51.654;5.476;2023-02-15T05:59:21;102761.09;;;1.43;83.37
72921;BME280;61064;51.654;5.476;2023-02-15T06:01:47;102769.41;;;1.49;83.39
72921;BME280;61064;51.654;5.476;2023-02-15T06:04:12;102747.41;;;1.35;83.47
72921;BME280;61064;51.654;5.476;2023-02-15T06:06:37;102756.19;;;1.36;83.54
72921;BME280;61064;51.654;5.476;2023-02-15T06:09:03;102780.56;;;1.46;83.30
72921;BME280;61064;51.654;5.476;2023-02-15T06:11:28;102764.50;;;1.30;83.04
72921;BME280;61064;51.654;5.476;2023-02-15T06:13:54;102728.84;;;1.09;83.35
72921;BME280;61064;51.654;5.476;2023-02-15T06:16:19;102741.72;;;1.06;83.06
72921;BME280;61064;51.654;5.476;2023-02-15T06:18:44;102734.66;;;1.05;83.50
72921;BME280;61064;51.654;5.476;2023-02-15T06:21:10;102777.41;;;1.27;83.40
72921;BME280;61064;51.654;5.476;2023-02-15T06:23:35;102766.13;;;1.16;83.39
72921;BME280;61064;51.654;5.476;2023-02-15T06:26:00;102759.38;;;1.08;83.32
72921;BME280;61064;51.654;5.476;2023-02-15T06:28:26;102773.53;;;1.22;83.64
72921;BME280;61064;51.654;5.476;2023-02-15T06:30:51;102738.19;;;0.94;83.45
72921;BME280;61064;51.654;5.476;2023-02-15T06:33:17;102718.78;;;0.80;83.29
72921;BME280;61064;51.654;5.476;2023-02-15T06:35:43;102762.69;;;1.06;83.36
72921;BME280;61064;51.654;5.476;2023-02-15T06:38:08;102772.03;;;1.14;83.73
72921;BME280;61064;51.654;5.476;2023-02-15T06:40:33;102766.19;;;1.06;83.58
72921;BME280;61064;51.654;5.476;2023-02-15T06:42:59;102776.22;;;1.12;83.55
72921;BME280;61064;51.654;5.476;2023-02-15T06:45:24;102772.34;;;1.07;83.83
72921;BME280;61064;51.654;5.476;2023-02-15T06:47:49;102728.81;;;0.86;83.71
72921;BME280;61064;51.654;5.476;2023-02-15T06:50:15;102776.13;;;1.10;83.72
72921;BME280;61064;51.654;5.476;2023-02-15T06:52:40;102757.66;;;0.97;83.63
72921;BME280;61064;51.654;5.476;2023-02-15T06:55:06;102759.63;;;1.00;83.80
72921;BME280;61064;51.654;5.476;2023-02-15T06:57:32;102761.66;;;1.04;83.69
72921;BME280;61064;51.654;5.476;2023-02-15T06:59:58;102739.31;;;0.97;83.97
72921;BME280;61064;51.654;5.476;2023-02-15T07:02:23;102744.69;;;0.99;83.60
72921;BME280;61064;51.654;5.476;2023-02-15T07:04:49;102757.88;;;1.12;83.74
72921;BME280;61064;51.654;5.476;2023-02-15T07:07:14;102750.38;;;1.05;83.85
72921;BME280;61064;51.654;5.476;2023-02-15T07:09:40;102752.63;;;1.12;83.63
72921;BME280;61064;51.654;5.476;2023-02-15T07:12:06;102749.22;;;1.13;83.76
72921;BME280;61064;51.654;5.476;2023-02-15T07:14:50;102750.72;;;1.09;83.78
72921;BME280;61064;51.654;5.476;2023-02-15T07:17:16;102740.91;;;1.07;83.95
72921;BME280;61064;51.654;5.476;2023-02-15T07:19:42;102730.78;;;1.00;84.10
72921;BME280;61064;51.654;5.476;2023-02-15T07:22:08;102719.25;;;0.98;83.95
72921;BME280;61064;51.654;5.476;2023-02-15T07:24:33;102740.34;;;1.11;83.75
72921;BME280;61064;51.654;5.476;2023-02-15T07:26:58;102724.97;;;1.04;84.20
72921;BME280;61064;51.654;5.476;2023-02-15T07:29:24;102724.50;;;1.09;84.06
72921;BME280;61064;51.654;5.476;2023-02-15T07:31:52;102738.63;;;1.23;84.05
72921;BME280;61064;51.654;5.476;2023-02-15T07:34:17;102702.88;;;1.00;84.08
72921;BME280;61064;51.654;5.476;2023-02-15T07:36:42;102738.16;;;1.29;84.33
72921;BME280;61064;51.654;5.476;2023-02-15T07:39:10;102737.28;;;1.28;84.15
72921;BME280;61064;51.654;5.476;2023-02-15T07:41:35;102738.53;;;1.33;83.88
72921;BME280;61064;51.654;5.476;2023-02-15T07:44:00;102741.13;;;1.45;84.16
72921;BME280;61064;51.654;5.476;2023-02-15T07:46:26;102728.50;;;1.39;84.03
72921;BME280;61064;51.654;5.476;2023-02-15T07:48:51;102711.41;;;1.33;84.30
72921;BME280;61064;51.654;5.476;2023-02-15T07:51:16;102744.63;;;1.57;84.23
72921;BME280;61064;51.654;5.476;2023-02-15T07:53:42;102739.19;;;1.54;84.13
72921;BME280;61064;51.654;5.476;2023-02-15T07:56:10;102709.75;;;1.46;84.00
72921;BME280;61064;51.654;5.476;2023-02-15T07:58:36;102717.84;;;1.61;84.30
72921;BME280;61064;51.654;5.476;2023-02-15T08:01:29;102734.69;;;1.76;84.18
72921;BME280;61064;51.654;5.476;2023-02-15T08:03:55;102733.97;;;1.79;84.29
72921;BME280;61064;51.654;5.476;2023-02-15T08:06:22;102733.75;;;1.87;84.08
72921;BME280;61064;51.654;5.476;2023-02-15T08:08:48;102709.47;;;1.78;84.27
72921;BME280;61064;51.654;5.476;2023-02-15T08:13:52;102721.00;;;2.05;84.15
72921;BME280;61064;51.654;5.476;2023-02-15T08:19:07;102728.94;;;2.18;84.44
72921;BME280;61064;51.654;5.476;2023-02-15T08:21:35;102726.84;;;2.26;84.06
72921;BME280;61064;51.654;5.476;2023-02-15T08:24:02;102722.03;;;2.32;84.52
72921;BME280;61064;51.654;5.476;2023-02-15T08:26:28;102717.81;;;2.34;84.02
72921;BME280;61064;51.654;5.476;2023-02-15T08:28:55;102729.25;;;2.47;84.21
72921;BME280;61064;51.654;5.476;2023-02-15T08:31:21;102716.34;;;2.50;84.43
72921;BME280;61064;51.654;5.476;2023-02-15T08:33:48;102683.16;;;2.39;84.12
72921;BME280;61064;51.654;5.476;2023-02-15T08:36:16;102683.19;;;2.53;84.24
72921;BME280;61064;51.654;5.476;2023-02-15T08:38:42;102722.97;;;2.83;84.15
72921;BME280;61064;51.654;5.476;2023-02-15T08:41:19;102695.84;;;2.84;84.11
72921;BME280;61064;51.654;5.476;2023-02-15T08:43:53;102697.59;;;2.97;84.12
72921;BME280;61064;51.654;5.476;2023-02-15T08:46:19;102708.31;;;3.13;84.15
72921;BME280;61064;51.654;5.476;2023-02-15T08:48:45;102667.97;;;3.00;84.06
72921;BME280;61064;51.654;5.476;2023-02-15T08:51:16;102688.28;;;3.28;83.78
72921;BME280;61064;51.654;5.476;2023-02-15T08:53:45;102694.25;;;3.39;83.82
72921;BME280;61064;51.654;5.476;2023-02-15T08:56:11;102694.94;;;3.50;84.17
72921;BME280;61064;51.654;5.476;2023-02-15T08:58:37;102638.91;;;3.24;83.91
72921;BME280;61064;51.654;5.476;2023-02-15T09:01:27;102693.28;;;3.65;83.88
72921;BME280;61064;51.654;5.476;2023-02-15T09:03:58;102692.66;;;3.69;83.84
72921;BME280;61064;51.654;5.476;2023-02-15T09:06:24;102659.69;;;3.61;83.31
72921;BME280;61064;51.654;5.476;2023-02-15T09:08:51;102691.00;;;3.84;83.47
72921;BME280;61064;51.654;5.476;2023-02-15T09:11:37;102659.44;;;3.71;83.55
72921;BME280;61064;51.654;5.476;2023-02-15T09:14:11;102658.19;;;3.79;83.44
72921;BME280;61064;51.654;5.476;2023-02-15T09:16:39;102684.97;;;4.00;83.21
72921;BME280;61064;51.654;5.476;2023-02-15T09:19:06;102687.09;;;4.05;83.56
72921;BME280;61064;51.654;5.476;2023-02-15T09:21:33;102683.91;;;4.11;83.51
72921;BME280;61064;51.654;5.476;2023-02-15T09:24:01;102684.09;;;4.14;83.52
72921;BME280;61064;51.654;5.476;2023-02-15T09:26:28;102677.66;;;4.24;83.29
72921;BME280;61064;51.654;5.476;2023-02-15T09:28:57;102656.50;;;4.22;83.16
72921;BME280;61064;51.654;5.476;2023-02-15T09:31:29;102676.94;;;4.41;83.38
72921;BME280;61064;51.654;5.476;2023-02-15T09:33:55;102668.72;;;4.49;83.42
72921;BME280;61064;51.654;5.476;2023-02-15T09:36:35;102654.63;;;4.49;83.42
72921;BME280;61064;51.654;5.476;2023-02-15T09:55:51;102642.63;;;5.29;82.66
72921;BME280;61064;51.654;5.476;2023-02-15T10:01:39;102670.56;;;5.72;82.22
72921;BME280;61064;51.654;5.476;2023-02-15T10:04:42;102664.16;;;5.83;82.11
72921;BME280;61064;51.654;5.476;2023-02-15T10:13:18;102669.03;;;6.41;82.01
72921;BME280;61064;51.654;5.476;2023-02-15T10:26:43;102658.16;;;7.22;80.40
72921;BME280;61064;51.654;5.476;2023-02-15T10:29:37;102654.16;;;7.30;80.27
72921;BME280;61064;51.654;5.476;2023-02-15T10:34:51;102652.22;;;7.63;80.09
72921;BME280;61064;51.654;5.476;2023-02-15T10:40:15;102645.03;;;7.99;79.29
72921;BME280;61064;51.654;5.476;2023-02-15T10:48:13;102653.63;;;8.51;78.59
72921;BME280;61064;51.654;5.476;2023-02-15T10:50:48;102653.63;;;8.71;78.18
72921;BME280;61064;51.654;5.476;2023-02-15T11:06:52;102633.06;;;9.74;76.50
72921;BME280;61064;51.654;5.476;2023-02-15T11:09:21;102620.34;;;9.89;76.12
72921;BME280;61064;51.654;5.476;2023-02-15T11:11:52;102616.72;;;10.11;75.76
72921;BME280;61064;51.654;5.476;2023-02-15T11:14:43;102614.75;;;10.29;75.11
72921;BME280;61064;51.654;5.476;2023-02-15T11:17:14;102613.47;;;10.42;74.74
72921;BME280;61064;51.654;5.476;2023-02-15T11:19:54;102605.88;;;10.54;73.96
72921;BME280;61064;51.654;5.476;2023-02-15T11:22:21;102619.03;;;10.75;73.82
72921;BME280;61064;51.654;5.476;2023-02-15T11:24:47;102613.00;;;10.80;73.02
72921;BME280;61064;51.654;5.476;2023-02-15T11:27:20;102584.44;;;10.75;72.36
72921;BME280;61064;51.654;5.476;2023-02-15T11:32:58;102611.00;;;11.00;72.19
72921;BME280;61064;51.654;5.476;2023-02-15T11:35:58;102608.78;;;11.14;71.87
72921;BME280;61064;51.654;5.476;2023-02-15T11:38:28;102580.41;;;11.16;71.42
72921;BME280;61064;51.654;5.476;2023-02-15T11:40:58;102585.44;;;11.34;71.06
72921;BME280;61064;51.654;5.476;2023-02-15T11:45:55;102572.88;;;11.59;70.90
72921;BME280;61064;51.654;5.476;2023-02-15T11:48:21;102549.06;;;11.65;70.28
72921;BME280;61064;51.654;5.476;2023-02-15T11:50:47;102549.41;;;11.76;69.82
72921;BME280;61064;51.654;5.476;2023-02-15T11:53:16;102555.34;;;11.96;68.94
72921;BME280;61064;51.654;5.476;2023-02-15T11:55:43;102554.66;;;12.03;68.56
72921;BME280;61064;51.654;5.476;2023-02-15T12:00:43;102545.41;;;12.23;67.71
72921;BME280;61064;51.654;5.476;2023-02-15T12:03:52;102543.94;;;12.34;67.64
72921;BME280;61064;51.654;5.476;2023-02-15T12:06:28;102538.06;;;12.47;67.28
72921;BME280;61064;51.654;5.476;2023-02-15T12:09:02;102547.41;;;12.65;66.83
72921;BME280;61064;51.654;5.476;2023-02-15T12:11:36;102525.09;;;12.63;66.19
72921;BME280;61064;51.654;5.476;2023-02-15T12:14:08;102533.56;;;12.82;66.59
72921;BME280;61064;51.654;5.476;2023-02-15T12:16:54;102542.78;;;12.95;66.40
72921;BME280;61064;51.654;5.476;2023-02-15T12:21:54;102526.97;;;13.04;65.40
72921;BME280;61064;51.654;5.476;2023-02-15T12:24:27;102515.34;;;13.02;64.99
72921;BME280;61064;51.654;5.476;2023-02-15T12:27:05;102520.06;;;13.12;64.59
72921;BME280;61064;51.654;5.476;2023-02-15T12:29:52;102530.09;;;13.22;64.21
72921;BME280;61064;51.654;5.476;2023-02-15T12:32:24;102523.84;;;13.20;63.83
72921;BME280;61064;51.654;5.476;2023-02-15T12:34:51;102503.31;;;13.21;63.75
72921;BME280;61064;51.654;5.476;2023-02-15T12:37:23;102522.19;;;13.27;63.34
72921;BME280;61064;51.654;5.476;2023-02-15T12:39:57;102509.56;;;13.21;63.10
72921;BME280;61064;51.654;5.476;2023-02-15T12:42:24;102475.31;;;13.05;63.14
72921;BME280;61064;51.654;5.476;2023-02-15T12:45:01;102516.88;;;13.28;62.71
72921;BME280;61064;51.654;5.476;2023-02-15T12:47:28;102504.31;;;13.24;62.68
72921;BME280;61064;51.654;5.476;2023-02-15T12:50:24;102507.22;;;13.35;62.98
72921;BME280;61064;51.654;5.476;2023-02-15T12:53:13;102489.41;;;13.36;62.65
72921;BME280;61064;51.654;5.476;2023-02-15T12:55:49;102500.38;;;13.48;62.36
72921;BME280;61064;51.654;5.476;2023-02-15T12:58:17;102501.38;;;13.54;62.36
72921;BME280;61064;51.654;5.476;2023-02-15T13:00:44;102488.78;;;13.49;62.05
72921;BME280;61064;51.654;5.476;2023-02-15T13:03:18;102480.09;;;13.59;61.63
72921;BME280;61064;51.654;5.476;2023-02-15T13:05:46;102471.09;;;13.55;61.74
72921;BME280;61064;51.654;5.476;2023-02-15T13:08:17;102474.91;;;13.68;61.14
72921;BME280;61064;51.654;5.476;2023-02-15T13:10:57;102473.06;;;13.64;60.90
72921;BME280;61064;51.654;5.476;2023-02-15T13:13:26;102468.66;;;13.67;60.84
72921;BME280;61064;51.654;5.476;2023-02-15T13:15:55;102465.91;;;13.63;61.05
72921;BME280;61064;51.654;5.476;2023-02-15T13:18:36;102466.84;;;13.66;60.88
72921;BME280;61064;51.654;5.476;2023-02-15T13:21:12;102442.78;;;13.65;60.86
72921;BME280;61064;51.654;5.476;2023-02-15T13:23:41;102451.91;;;13.78;60.67
72921;BME280;61064;51.654;5.476;2023-02-15T13:26:13;102442.97;;;13.77;60.42
72921;BME280;61064;51.654;5.476;2023-02-15T13:28:44;102452.19;;;13.91;60.16
72921;BME280;61064;51.654;5.476;2023-02-15T13:31:22;102462.94;;;13.94;59.75
72921;BME280;61064;51.654;5.476;2023-02-15T13:33:51;102457.56;;;13.93;59.70
72921;BME280;61064;51.654;5.476;2023-02-15T13:36:21;102453.22;;;13.99;59.95
72921;BME280;61064;51.654;5.476;2023-02-15T13:38:55;102447.97;;;14.04;59.45
72921;BME280;61064;51.654;5.476;2023-02-15T13:52:47;102437.94;;;13.92;58.96
72921;BME280;61064;51.654;5.476;2023-02-15T13:55:59;102438.72;;;13.88;59.15
72921;BME280;61064;51.654;5.476;2023-02-15T14:01:13;102422.56;;;13.81;59.30
72921;BME280;61064;51.654;5.476;2023-02-15T14:17:43;102449.34;;;13.84;58.67
72921;BME280;61064;51.654;5.476;2023-02-15T14:20:22;102454.72;;;13.84;58.46
72921;BME280;61064;51.654;5.476;2023-02-15T14:22:57;102433.97;;;13.72;57.96
72921;BME280;61064;51.654;5.476;2023-02-15T14:25:35;102459.94;;;13.78;58.42
72921;BME280;61064;51.654;5.476;2023-02-15T14:28:17;102451.91;;;13.76;58.37
72921;BME280;61064;51.654;5.476;2023-02-15T14:30:49;102439.38;;;13.73;58.26
72921;BME280;61064;51.654;5.476;2023-02-15T14:35:47;102437.38;;;13.63;58.06
72921;BME280;61064;51.654;5.476;2023-02-15T14:43:48;102454.13;;;13.55;58.03
72921;BME280;61064;51.654;5.476;2023-02-15T14:49:18;102449.47;;;13.45;58.41
72921;BME280;61064;51.654;5.476;2023-02-15T14:56:43;102434.94;;;13.30;58.29
72921;BME280;61064;51.654;5.476;2023-02-15T14:59:22;102442.06;;;13.30;58.20
72921;BME280;61064;51.654;5.476;2023-02-15T15:04:38;102454.34;;;13.22;58.06
72921;BME280;61064;51.654;5.476;2023-02-15T15:07:22;102457.88;;;13.19;58.33
72921;BME280;61064;51.654;5.476;2023-02-15T15:09:59;102454.09;;;13.11;58.38
72921;BME280;61064;51.654;5.476;2023-02-15T15:14:53;102449.59;;;13.10;58.47
72921;BME280;61064;51.654;5.476;2023-02-15T15:19:59;102445.03;;;13.03;58.53
72921;BME280;61064;51.654;5.476;2023-02-15T15:22:26;102431.31;;;12.88;58.63
72921;BME280;61064;51.654;5.476;2023-02-15T15:28:02;102449.09;;;12.86;59.21
72921;BME280;61064;51.654;5.476;2023-02-15T15:49:10;102425.75;;;12.40;59.43
72921;BME280;61064;51.654;5.476;2023-02-15T15:51:40;102433.81;;;12.43;59.42
72921;BME280;61064;51.654;5.476;2023-02-15T15:54:14;102442.59;;;12.39;59.56
72921;BME280;61064;51.654;5.476;2023-02-15T15:56:44;102436.31;;;12.35;59.58
72921;BME280;61064;51.654;5.476;2023-02-15T15:59:17;102436.19;;;12.31;59.53
72921;BME280;61064;51.654;5.476;2023-02-15T16:01:45;102442.41;;;12.30;59.71
72921;BME280;61064;51.654;5.476;2023-02-15T16:04:12;102408.84;;;12.05;59.67
72921;BME280;61064;51.654;5.476;2023-02-15T16:06:39;102431.31;;;12.13;59.84
72921;BME280;61064;51.654;5.476;2023-02-15T16:09:16;102435.72;;;12.13;59.79
72921;BME280;61064;51.654;5.476;2023-02-15T16:11:43;102432.09;;;12.11;59.93
72921;BME280;61064;51.654;5.476;2023-02-15T16:14:13;102424.91;;;12.06;60.14
72921;BME280;61064;51.654;5.476;2023-02-15T16:16:39;102386.06;;;11.83;60.32
72921;BME280;61064;51.654;5.476;2023-02-15T16:19:05;102421.16;;;12.00;60.62
72921;BME280;61064;51.654;5.476;2023-02-15T16:21:34;102383.94;;;11.70;60.46